createdAt,value
2022-11-25T00:04:39.119Z,1999.90
2022-11-25T00:07:06.174Z,1999.90
2022-11-25T00:09:33.168Z,1999.90
2022-11-25T00:12:00.176Z,1999.90
2022-11-25T00:14:27.217Z,1999.90
2022-11-25T00:16:54.252Z,1999.90
2022-11-25T00:19:21.302Z,1999.90
2022-11-25T00:21:48.399Z,1999.90
2022-11-25T00:24:16.224Z,1999.90
2022-11-25T00:26:43.408Z,1999.90
2022-11-25T00:29:11.556Z,1999.90
2022-11-25T00:31:39.629Z,1999.90
2022-11-25T00:34:07.299Z,1999.90
2022-11-25T00:36:38.004Z,1999.90
2022-11-25T00:39:10.698Z,1999.90
2022-11-25T00:41:56.551Z,1999.90
2022-11-25T00:44:36.476Z,1999.90
2022-11-25T00:47:10.179Z,1999.90
2022-11-25T00:49:37.740Z,1999.90
2022-11-25T00:52:04.950Z,1999.90
2022-11-25T00:54:32.592Z,1999.90
2022-11-25T00:56:59.872Z,1999.90
2022-11-25T00:59:26.983Z,1999.90
2022-11-25T01:01:54.046Z,1999.90
2022-11-25T01:04:21.058Z,1999.90
2022-11-25T01:06:48.026Z,1999.90
2022-11-25T01:09:15.064Z,1999.90
2022-11-25T01:11:42.091Z,1999.90
2022-11-25T01:14:09.527Z,1999.90
2022-11-25T01:16:36.917Z,1999.90
2022-11-25T01:19:04.536Z,1999.90
2022-11-25T01:21:32.851Z,1999.90
2022-11-25T01:24:01.433Z,1999.90
2022-11-25T01:26:29.101Z,1999.90
2022-11-25T01:28:57.304Z,1999.90
2022-11-25T01:31:25.803Z,1999.90
2022-11-25T01:33:54.169Z,1999.90
2022-11-25T01:36:21.194Z,1999.90
2022-11-25T01:38:51.142Z,1999.90
2022-11-25T01:41:18.289Z,1999.90
2022-11-25T01:44:02.908Z,1999.90
2022-11-25T01:46:31.669Z,1999.90
2022-11-25T01:49:04.190Z,1999.90
2022-11-25T01:51:43.447Z,1999.90
2022-11-25T01:54:12.339Z,1999.90
2022-11-25T01:56:42.445Z,1999.90
2022-11-25T01:59:09.519Z,1999.90
2022-11-25T02:01:36.672Z,1999.90
2022-11-25T02:04:04.582Z,1999.90
2022-11-25T02:06:37.144Z,1999.90
2022-11-25T02:09:05.983Z,1999.90
2022-11-25T02:11:34.463Z,1999.90
2022-11-25T02:14:02.638Z,1999.90
2022-11-25T02:16:30.112Z,1999.90
2022-11-25T02:18:57.197Z,1999.90
2022-11-25T02:21:27.202Z,1999.90
2022-11-25T02:24:01.678Z,1999.90
2022-11-25T02:26:28.723Z,1999.90
2022-11-25T02:28:55.769Z,1999.90
2022-11-25T02:31:23.433Z,1999.90
2022-11-25T02:33:50.568Z,1999.90
2022-11-25T02:36:19.134Z,1999.90
2022-11-25T02:38:48.111Z,1999.90
2022-11-25T02:41:35.362Z,1999.90
2022-11-25T02:44:02.804Z,1999.90
2022-11-25T02:46:30.538Z,1999.90
2022-11-25T02:49:08.912Z,1999.90
2022-11-25T02:51:36.979Z,1999.90
2022-11-25T02:54:04.053Z,1999.90
2022-11-25T02:56:32.913Z,1999.90
2022-11-25T02:59:00.267Z,1999.90
2022-11-25T03:01:27.490Z,1999.90
2022-11-25T03:03:54.551Z,1999.90
2022-11-25T03:06:21.567Z,1999.90
2022-11-25T03:08:48.674Z,1999.90
2022-11-25T03:11:15.696Z,1999.90
2022-11-25T03:13:42.713Z,1999.90
2022-11-25T03:16:09.882Z,1999.90
2022-11-25T03:18:37.014Z,1999.90
2022-11-25T03:21:04.110Z,1999.90
2022-11-25T03:23:31.185Z,1999.90
2022-11-25T03:25:58.165Z,1999.90
2022-11-25T03:28:25.254Z,1999.90
2022-11-25T03:30:52.256Z,1999.90
2022-11-25T03:33:19.355Z,1999.90
2022-11-25T03:35:46.380Z,1999.90
2022-11-25T03:38:13.398Z,1999.90
2022-11-25T03:40:40.461Z,1999.90
2022-11-25T03:43:07.461Z,1999.90
2022-11-25T03:45:34.550Z,1999.90
2022-11-25T03:48:01.557Z,1999.90
2022-11-25T03:50:28.536Z,1999.90
2022-11-25T03:52:55.509Z,1999.90
2022-11-25T03:55:22.495Z,1999.90
2022-11-25T03:57:49.536Z,1999.90
2022-11-25T04:00:16.579Z,1999.90
2022-11-25T04:02:43.864Z,1999.90
2022-11-25T04:05:10.886Z,1999.90
2022-11-25T04:07:38.000Z,1999.90
2022-11-25T04:10:05.165Z,1999.90
2022-11-25T04:12:47.544Z,1999.90
2022-11-25T04:15:18.083Z,1999.90
2022-11-25T04:17:45.275Z,1999.90
2022-11-25T04:20:13.112Z,1999.90
2022-11-25T04:22:40.505Z,1999.90
2022-11-25T04:25:08.083Z,1999.90
2022-11-25T04:27:35.152Z,1999.90
2022-11-25T04:30:02.190Z,1999.90
2022-11-25T04:32:29.241Z,1999.90
2022-11-25T04:34:56.288Z,1999.90
2022-11-25T04:37:23.282Z,1999.90
2022-11-25T04:39:50.393Z,1999.90
2022-11-25T04:42:32.819Z,1999.90
2022-11-25T04:45:23.650Z,1999.90
2022-11-25T04:47:47.125Z,1999.90
2022-11-25T04:50:15.735Z,1999.90
2022-11-25T04:52:42.743Z,1999.90
2022-11-25T04:55:10.057Z,1999.90
2022-11-25T04:57:37.103Z,1999.90
2022-11-25T05:00:04.918Z,1999.90
2022-11-25T05:02:32.019Z,1999.90
2022-11-25T05:04:59.188Z,1999.90
2022-11-25T05:07:27.104Z,1999.90
2022-11-25T05:09:54.298Z,1999.90
2022-11-25T05:12:22.670Z,1999.90
2022-11-25T05:14:50.124Z,1999.90
2022-11-25T05:17:18.536Z,1999.90
2022-11-25T05:19:46.061Z,1999.90
2022-11-25T05:22:17.030Z,1999.90
2022-11-25T05:24:44.093Z,1999.90
2022-11-25T05:27:11.581Z,1999.90
2022-11-25T05:29:38.964Z,1999.90
2022-11-25T05:32:06.902Z,1999.90
2022-11-25T05:34:34.260Z,1999.90
2022-11-25T05:37:01.549Z,1999.90
2022-11-25T05:39:28.701Z,1999.90
2022-11-25T05:41:55.772Z,1999.90
2022-11-25T05:44:34.438Z,1999.90
2022-11-25T05:47:01.552Z,1999.90
2022-11-25T05:49:28.547Z,1999.90
2022-11-25T05:51:55.513Z,1999.90
2022-11-25T05:54:22.524Z,1999.90
2022-11-25T05:56:49.515Z,1999.90
2022-11-25T05:59:16.586Z,1999.90
2022-11-25T06:01:43.607Z,1999.90
2022-11-25T06:04:10.829Z,1999.90
2022-11-25T06:06:37.845Z,1999.90
2022-11-25T06:09:04.875Z,1999.90
2022-11-25T06:11:32.013Z,1999.90
2022-11-25T06:13:59.220Z,1999.90
2022-11-25T06:16:26.562Z,1999.90
2022-11-25T06:18:53.614Z,1999.90
2022-11-25T06:21:20.743Z,1999.90
2022-11-25T06:23:47.964Z,1999.90
2022-11-25T06:26:19.541Z,1999.90
2022-11-25T06:28:47.065Z,1999.90
2022-11-25T06:31:15.971Z,1999.90
2022-11-25T06:33:43.656Z,1999.90
2022-11-25T06:36:16.917Z,1999.90
2022-11-25T06:38:51.869Z,1999.90
2022-11-25T06:41:19.015Z,1999.90
2022-11-25T06:43:46.014Z,1999.90
2022-11-25T06:46:15.660Z,1999.90
2022-11-25T06:48:44.431Z,1999.90
2022-11-25T06:51:12.596Z,1999.90
2022-11-25T06:53:40.029Z,1999.90
2022-11-25T06:56:21.066Z,1999.90
2022-11-25T06:58:48.564Z,1999.90
2022-11-25T07:01:18.214Z,1999.90
2022-11-25T07:03:45.980Z,1999.90
2022-11-25T07:06:13.645Z,1999.90
2022-11-25T07:08:41.236Z,1999.90
2022-11-25T07:11:28.836Z,1999.90
2022-11-25T07:13:57.075Z,1999.90
2022-11-25T07:16:24.605Z,1999.90
2022-11-25T07:18:51.826Z,1999.90
2022-11-25T07:21:20.003Z,1999.90
2022-11-25T07:23:47.647Z,1999.90
2022-11-25T07:26:18.952Z,1999.90
2022-11-25T07:28:46.287Z,1999.90
2022-11-25T07:31:24.183Z,1999.90
2022-11-25T07:33:55.042Z,1999.90
2022-11-25T07:36:22.209Z,1999.90
2022-11-25T07:38:49.225Z,1999.90
2022-11-25T07:41:18.108Z,1999.90
2022-11-25T07:43:45.684Z,1999.90
2022-11-25T07:46:17.147Z,1999.90
2022-11-25T07:48:45.448Z,1999.90
2022-11-25T07:51:15.674Z,1999.90
2022-11-25T07:53:42.853Z,1999.90
2022-11-25T07:56:10.197Z,1999.90
2022-11-25T07:58:41.441Z,1999.90
2022-11-25T08:01:12.619Z,1999.90
2022-11-25T08:03:41.990Z,1999.90
2022-11-25T08:06:12.569Z,1999.90
2022-11-25T08:08:39.901Z,1999.90
2022-11-25T08:11:08.376Z,1999.90
2022-11-25T08:13:36.132Z,1999.90
2022-11-25T08:16:03.290Z,1999.90
2022-11-25T08:18:30.363Z,1999.90
2022-11-25T08:21:01.199Z,1999.90
2022-11-25T08:23:28.435Z,1999.90
2022-11-25T08:25:55.569Z,1999.90
2022-11-25T08:28:22.737Z,1999.90
2022-11-25T08:30:49.995Z,1999.90
2022-11-25T08:33:17.544Z,1999.90
2022-11-25T08:35:44.715Z,1999.90
2022-11-25T08:38:12.286Z,1999.90
2022-11-25T08:40:39.334Z,1999.90
2022-11-25T08:43:06.318Z,1999.90
2022-11-25T08:45:34.915Z,1999.90
2022-11-25T08:48:01.934Z,1999.90
2022-11-25T08:50:28.986Z,1999.90
2022-11-25T08:52:57.466Z,1999.90
2022-11-25T08:55:26.318Z,1999.90
2022-11-25T08:57:54.096Z,1999.90
2022-11-25T09:00:21.622Z,1999.90
2022-11-25T09:02:48.681Z,1999.90
2022-11-25T09:05:17.983Z,1999.90
2022-11-25T09:07:45.130Z,1999.90
2022-11-25T09:10:16.720Z,1999.90
2022-11-25T09:12:44.101Z,1999.90
2022-11-25T09:15:11.466Z,1999.90
2022-11-25T09:17:38.536Z,1999.90
2022-11-25T09:20:05.934Z,1999.90
2022-11-25T09:22:33.186Z,1999.90
2022-11-25T09:25:00.577Z,1999.90
2022-11-25T09:27:27.593Z,1999.90
2022-11-25T09:29:54.674Z,1999.90
2022-11-25T09:32:21.675Z,1999.90
2022-11-25T09:34:48.770Z,1999.90
2022-11-25T09:37:15.987Z,1999.90
2022-11-25T09:39:43.043Z,1999.90
2022-11-25T09:42:43.909Z,1999.90
2022-11-25T09:45:29.633Z,1999.90
2022-11-25T09:47:58.107Z,1999.90
2022-11-25T09:50:40.210Z,1999.90
2022-11-25T09:53:07.181Z,1999.90
2022-11-25T09:55:37.838Z,1999.90
2022-11-25T09:58:21.905Z,1999.90
2022-11-25T10:00:50.729Z,1999.90
2022-11-25T10:03:25.763Z,1999.90
2022-11-25T10:06:15.734Z,1999.90
2022-11-25T10:08:44.572Z,1999.90
2022-11-25T10:11:30.090Z,1999.90
2022-11-25T10:14:16.046Z,1999.90
2022-11-25T10:16:51.558Z,1999.90
2022-11-25T10:19:18.943Z,1999.90
2022-11-25T10:21:46.639Z,1999.90
2022-11-25T10:24:15.378Z,1999.90
2022-11-25T10:26:44.225Z,1999.90
2022-11-25T10:29:14.210Z,1999.90
2022-11-25T10:31:44.556Z,1999.90
2022-11-25T10:34:24.907Z,1999.90
2022-11-25T10:36:52.349Z,1999.90
2022-11-25T10:39:24.329Z,1999.90
2022-11-25T10:41:54.508Z,1999.90
2022-11-25T10:44:26.542Z,1999.90
2022-11-25T10:47:13.893Z,1999.90
2022-11-25T10:49:52.410Z,1999.90
2022-11-25T10:52:21.615Z,1999.90
2022-11-25T10:54:59.434Z,1999.90
2022-11-25T10:57:29.635Z,1999.90
2022-11-25T10:59:58.440Z,1999.90
2022-11-25T11:02:25.701Z,1999.90
2022-11-25T11:04:58.643Z,1999.90
2022-11-25T11:07:27.442Z,1999.90
2022-11-25T11:09:54.838Z,1999.90
2022-11-25T11:12:28.881Z,1999.90
2022-11-25T11:15:14.829Z,1999.90
2022-11-25T11:17:42.009Z,1999.90
2022-11-25T11:20:09.030Z,1999.90
2022-11-25T11:22:37.557Z,1999.90
2022-11-25T11:25:24.384Z,1999.90
2022-11-25T11:27:51.538Z,1999.90
2022-11-25T11:30:20.430Z,1999.90
2022-11-25T11:32:59.529Z,1999.90
2022-11-25T11:35:41.965Z,1999.90
2022-11-25T11:38:32.602Z,1999.90
2022-11-25T11:41:06.242Z,763.45
2022-11-25T11:43:56.497Z,684.88
2022-11-25T11:46:33.795Z,361.50
2022-11-25T11:49:15.526Z,91.72
2022-11-25T11:52:00.665Z,216.00
2022-11-25T11:54:35.552Z,714.80
2022-11-25T11:57:05.135Z,364.27
2022-11-25T11:59:32.166Z,97.03
2022-11-25T12:02:17.732Z,89.03
2022-11-25T12:04:53.976Z,90.00
2022-11-25T12:07:39.595Z,96.25
2022-11-25T12:10:11.239Z,91.57
2022-11-25T12:12:43.384Z,81.30
2022-11-25T12:15:16.682Z,320.38
2022-11-25T12:17:47.379Z,1999.90
2022-11-25T12:20:19.405Z,1999.90
2022-11-25T12:23:09.117Z,1999.90
2022-11-25T12:25:40.551Z,1999.90
2022-11-25T12:28:07.635Z,1999.90
2022-11-25T12:31:03.344Z,505.73
2022-11-25T12:33:50.497Z,531.92
2022-11-25T12:36:19.351Z,680.63
2022-11-25T12:38:48.035Z,358.48
2022-11-25T12:41:25.743Z,742.90
2022-11-25T12:44:01.705Z,656.05
2022-11-25T12:46:44.923Z,390.70
2022-11-25T12:49:16.421Z,285.08
2022-11-25T12:51:58.530Z,544.53
2022-11-25T12:54:44.049Z,482.48
2022-11-25T12:57:20.330Z,345.20
2022-11-25T13:00:24.917Z,385.55
2022-11-25T13:02:55.477Z,1999.90
2022-11-25T13:05:39.984Z,1999.90
2022-11-25T13:08:20.024Z,786.10
2022-11-25T13:10:56.479Z,52.72
2022-11-25T13:13:29.922Z,107.90
2022-11-25T13:16:00.157Z,122.70
2022-11-25T13:18:29.551Z,65.95
2022-11-25T13:20:57.515Z,73.88
2022-11-25T13:23:28.989Z,464.17
2022-11-25T13:26:15.960Z,1999.90
2022-11-25T13:28:42.990Z,1999.90
2022-11-25T13:31:22.627Z,1999.90
2022-11-25T13:33:49.680Z,1999.90
2022-11-25T13:36:18.275Z,1999.90
2022-11-25T13:38:51.320Z,742.95
2022-11-25T13:41:23.248Z,503.77
2022-11-25T13:44:01.756Z,255.77
2022-11-25T13:46:38.893Z,142.15
2022-11-25T13:49:26.180Z,63.72
2022-11-25T13:51:58.180Z,50.67
2022-11-25T13:54:27.980Z,60.40
2022-11-25T13:56:59.165Z,71.55
2022-11-25T13:59:37.547Z,79.28
2022-11-25T14:02:23.526Z,81.40
2022-11-25T14:04:50.654Z,75.60
2022-11-25T14:07:27.533Z,71.22
2022-11-25T14:10:03.407Z,67.00
2022-11-25T14:12:40.874Z,64.95
2022-11-25T14:15:19.749Z,70.82
2022-11-25T14:18:10.093Z,72.60
2022-11-25T14:20:50.405Z,70.63
2022-11-25T14:23:41.199Z,72.47
2022-11-25T14:26:48.328Z,67.93
2022-11-25T14:29:25.527Z,64.25
2022-11-25T14:31:57.130Z,314.35
2022-11-25T14:34:27.697Z,1999.90
2022-11-25T14:36:57.462Z,1999.90
2022-11-25T14:39:47.751Z,1581.93
2022-11-25T14:42:17.425Z,358.35
2022-11-25T14:44:49.378Z,95.65
2022-11-25T14:47:16.727Z,92.25
2022-11-25T14:52:43.775Z,61.72
2022-11-25T14:55:11.569Z,53.05
2022-11-25T14:57:41.537Z,238.73
2022-11-25T15:00:10.702Z,1999.90
2022-11-25T15:02:52.020Z,1999.90
2022-11-25T15:05:20.029Z,339.33
2022-11-25T15:08:17.829Z,363.88
2022-11-25T15:10:52.879Z,243.57
2022-11-25T15:13:39.206Z,313.40
2022-11-25T15:16:13.183Z,394.83
2022-11-25T15:18:47.435Z,463.13
2022-11-25T15:21:15.497Z,545.25
2022-11-25T15:23:42.571Z,617.10
2022-11-25T15:26:25.299Z,1999.90
2022-11-25T15:28:56.728Z,1999.90
2022-11-25T15:31:27.162Z,1999.90
2022-11-25T15:33:55.573Z,1999.90
2022-11-25T15:36:23.793Z,1999.90
2022-11-25T15:38:51.186Z,1999.90
2022-11-25T15:41:30.822Z,1999.90
2022-11-25T15:43:58.821Z,1999.90
2022-11-25T15:46:26.425Z,1999.90
2022-11-25T15:48:54.549Z,1999.90
2022-11-25T15:51:21.561Z,1999.90
2022-11-25T15:53:52.901Z,1999.90
2022-11-25T15:56:22.077Z,1999.90
2022-11-25T15:58:49.077Z,1999.90
2022-11-25T16:01:16.993Z,1999.90
2022-11-25T16:03:47.251Z,1999.90
2022-11-25T16:06:22.366Z,1999.90
2022-11-25T16:08:57.009Z,1999.90
2022-11-25T16:11:25.635Z,1999.90
2022-11-25T16:13:53.833Z,1999.90
2022-11-25T16:16:22.336Z,1999.90
2022-11-25T16:19:06.820Z,1999.90
2022-11-25T16:21:36.856Z,1999.90
2022-11-25T16:24:06.870Z,1999.90
2022-11-25T16:26:35.733Z,1999.90
2022-11-25T16:29:09.004Z,1999.90
2022-11-25T16:31:36.060Z,1999.90
2022-11-25T16:34:13.654Z,1999.90
2022-11-25T16:36:40.762Z,1999.90
2022-11-25T16:39:08.118Z,1999.90
2022-11-25T16:41:36.127Z,1999.90
2022-11-25T16:44:08.828Z,1999.90
2022-11-25T16:46:36.085Z,1999.90
2022-11-25T16:49:05.074Z,1999.90
2022-11-25T16:51:32.058Z,1999.90
2022-11-25T16:53:59.100Z,1999.90
2022-11-25T16:56:28.481Z,1999.90
2022-11-25T16:58:55.596Z,1999.90
2022-11-25T17:01:24.180Z,1999.90
2022-11-25T17:03:51.282Z,1999.90
2022-11-25T17:06:22.152Z,1999.90
2022-11-25T17:08:50.153Z,1999.90
2022-11-25T17:11:17.143Z,1999.90
2022-11-25T17:13:48.860Z,1999.90
2022-11-25T17:16:18.202Z,1999.90
2022-11-25T17:18:45.532Z,1999.90
2022-11-25T17:21:16.375Z,1999.90
2022-11-25T17:23:44.166Z,1999.90
2022-11-25T17:26:17.834Z,1999.90
2022-11-25T17:28:47.752Z,1999.90
2022-11-25T17:31:14.811Z,1999.90
2022-11-25T17:33:45.950Z,1999.90
2022-11-25T17:36:12.972Z,1999.90
2022-11-25T17:38:41.211Z,1999.90
2022-11-25T17:41:18.661Z,1999.90
2022-11-25T17:43:46.768Z,1999.90
2022-11-25T17:46:15.427Z,1999.90
2022-11-25T17:48:42.836Z,1999.90
2022-11-25T17:51:11.345Z,1999.90
2022-11-25T17:53:39.647Z,1999.90
2022-11-25T17:56:23.562Z,1999.90
2022-11-25T17:58:51.080Z,1999.90
2022-11-25T18:01:18.286Z,1999.90
2022-11-25T18:03:45.514Z,1999.90
2022-11-25T18:06:12.622Z,1999.90
2022-11-25T18:08:39.709Z,1999.90
2022-11-25T18:11:07.726Z,1999.90
2022-11-25T18:13:37.511Z,1999.90
2022-11-25T18:16:04.699Z,1999.90
2022-11-25T18:18:31.709Z,1999.90
2022-11-25T18:20:58.765Z,1999.90
2022-11-25T18:23:25.871Z,1999.90
2022-11-25T18:25:53.525Z,1999.90
2022-11-25T18:28:22.629Z,1999.90
2022-11-25T18:30:51.023Z,1999.90
2022-11-25T18:33:20.447Z,1999.90
2022-11-25T18:35:47.814Z,1999.90
2022-11-25T18:38:14.963Z,1999.90
2022-11-25T18:40:47.507Z,1999.90
2022-11-25T18:43:18.197Z,1999.90
2022-11-25T18:45:45.806Z,1999.90
2022-11-25T18:48:17.112Z,1999.90
2022-11-25T18:50:44.502Z,1999.90
2022-11-25T18:53:11.928Z,1999.90
2022-11-25T18:55:39.454Z,1999.90
2022-11-25T18:58:39.578Z,1999.90
2022-11-25T19:01:12.204Z,1999.90
2022-11-25T19:03:39.690Z,1999.90
2022-11-25T19:06:07.102Z,1999.90
2022-11-25T19:08:34.173Z,1999.90
2022-11-25T19:11:01.195Z,1999.90
2022-11-25T19:13:31.541Z,1999.90
2022-11-25T19:16:02.604Z,1999.90
2022-11-25T19:18:29.764Z,1999.90
2022-11-25T19:20:56.900Z,1999.90
2022-11-25T19:23:25.532Z,1999.90
2022-11-25T19:25:53.598Z,1999.90
2022-11-25T19:28:20.855Z,1999.90
2022-11-25T19:30:48.283Z,1999.90
2022-11-25T19:33:19.502Z,1999.90
2022-11-25T19:35:46.567Z,1999.90
2022-11-25T19:38:21.359Z,1999.90
2022-11-25T19:40:51.238Z,1999.90
2022-11-25T19:43:18.232Z,1999.90
2022-11-25T19:45:45.680Z,1999.90
2022-11-25T19:48:14.595Z,1999.90
2022-11-25T19:50:43.454Z,1999.90
2022-11-25T19:53:14.745Z,1999.90
2022-11-25T19:55:41.795Z,1999.90
2022-11-25T19:58:09.251Z,1999.90
2022-11-25T20:00:36.302Z,1999.90
2022-11-25T20:03:03.415Z,1999.90
2022-11-25T20:05:34.387Z,1999.90
2022-11-25T20:08:01.793Z,1999.90
2022-11-25T20:10:30.681Z,1999.90
2022-11-25T20:12:58.278Z,1999.90
2022-11-25T20:15:26.043Z,1999.90
2022-11-25T20:17:54.482Z,1999.90
2022-11-25T20:20:28.019Z,1999.90
2022-11-25T20:22:57.274Z,1999.90
2022-11-25T20:25:24.612Z,1999.90
2022-11-25T20:27:51.821Z,1999.90
2022-11-25T20:30:20.286Z,1999.90
2022-11-25T20:32:47.348Z,1999.90
2022-11-25T20:35:14.914Z,1999.90
2022-11-25T20:37:53.714Z,1999.90
2022-11-25T20:40:22.575Z,1999.90
2022-11-25T20:42:50.282Z,1999.90
2022-11-25T20:45:18.514Z,1999.90
2022-11-25T20:47:46.973Z,1999.90
2022-11-25T20:50:14.277Z,1999.90
2022-11-25T20:52:41.615Z,1999.90
2022-11-25T20:55:16.500Z,1999.90
2022-11-25T20:57:44.084Z,1999.90
2022-11-25T21:00:22.241Z,1999.90
2022-11-25T21:02:49.589Z,1999.90
2022-11-25T21:05:16.629Z,1999.90
2022-11-25T21:07:44.345Z,1999.90
2022-11-25T21:10:34.861Z,1999.90
2022-11-25T21:13:09.313Z,1999.90
2022-11-25T21:15:36.652Z,1999.90
2022-11-25T21:18:03.923Z,1999.90
2022-11-25T21:20:30.961Z,1999.90
2022-11-25T21:22:58.595Z,1999.90
2022-11-25T21:25:25.716Z,1999.90
2022-11-25T21:27:52.796Z,1999.90
2022-11-25T21:30:21.284Z,1999.90
2022-11-25T21:32:48.602Z,1999.90
2022-11-25T21:35:16.205Z,1999.90
2022-11-25T21:37:44.052Z,1999.90
2022-11-25T21:40:29.657Z,1999.90
2022-11-25T21:42:56.694Z,1999.90
2022-11-25T21:45:23.780Z,1999.90
2022-11-25T21:47:50.863Z,1999.90
2022-11-25T21:50:19.038Z,1999.90
2022-11-25T21:52:46.047Z,1999.90
2022-11-25T21:55:13.907Z,1999.90
2022-11-25T21:57:41.504Z,1999.90
2022-11-25T22:00:19.786Z,1999.90
2022-11-25T22:02:46.870Z,1999.90
2022-11-25T22:05:15.519Z,1999.90
2022-11-25T22:07:42.678Z,1999.90
2022-11-25T22:10:10.028Z,1999.90
2022-11-25T22:12:41.348Z,1999.90
2022-11-25T22:15:19.971Z,1999.90
2022-11-25T22:17:47.295Z,1999.90
2022-11-25T22:20:41.108Z,1999.90
2022-11-25T22:25:36.464Z,1999.90
2022-11-25T22:28:03.543Z,1999.90
2022-11-25T22:30:30.579Z,1999.90
2022-11-25T22:33:02.185Z,1999.90
2022-11-25T22:35:29.470Z,1999.90
2022-11-25T22:37:56.495Z,1999.90
2022-11-25T22:40:24.419Z,1999.90
2022-11-25T22:42:52.690Z,1999.90
2022-11-25T22:45:25.793Z,1999.90
2022-11-25T22:47:53.019Z,1999.90
2022-11-25T22:50:22.860Z,1999.90
2022-11-25T22:52:50.480Z,1999.90
2022-11-25T22:55:17.757Z,1999.90
2022-11-25T22:57:44.863Z,1999.90
2022-11-25T23:00:13.097Z,1999.90
2022-11-25T23:02:40.225Z,1999.90
2022-11-25T23:05:13.915Z,1999.90
2022-11-25T23:07:40.989Z,1999.90
2022-11-25T23:10:14.468Z,1999.90
2022-11-25T23:12:41.704Z,1999.90
2022-11-25T23:15:12.449Z,1999.90
2022-11-25T23:17:39.506Z,1999.90
2022-11-25T23:20:26.966Z,1999.90
2022-11-25T23:22:54.089Z,1999.90
2022-11-25T23:25:22.155Z,1999.90
2022-11-25T23:27:49.473Z,1999.90
2022-11-25T23:30:19.588Z,1999.90
2022-11-25T23:32:48.923Z,1999.90
2022-11-25T23:35:42.323Z,1999.90
2022-11-25T23:38:13.824Z,1999.90
2022-11-25T23:40:40.851Z,1999.90
2022-11-25T23:43:14.241Z,1999.90
2022-11-25T23:45:49.474Z,1999.90
2022-11-25T23:48:17.498Z,1999.90
2022-11-25T23:50:44.784Z,1999.90
2022-11-25T23:53:17.844Z,1999.90
2022-11-25T23:55:44.935Z,1999.90
2022-11-25T23:58:16.404Z,1999.90
